sensor_id;sensor_type;location;lat;lon;timestamp;temperature;humidity
26505;DHT22;19493;48.042;7.584;2022-12-11T00:01:25;-2.30;99.90
26505;DHT22;19493;48.042;7.584;2022-12-11T00:03:50;-2.40;99.90
26505;DHT22;19493;48.042;7.584;2022-12-11T00:06:19;-2.50;99.90
26505;DHT22;19493;48.042;7.584;2022-12-11T00:08:45;-2.50;99.90
26505;DHT22;19493;48.042;7.584;2022-12-11T00:11:12;-2.40;99.90
26505;DHT22;19493;48.042;7.584;2022-12-11T00:13:37;-2.20;99.90
26505;DHT22;19493;48.042;7.584;2022-12-11T00:16:03;-2.10;99.90
26505;DHT22;19493;48.042;7.584;2022-12-11T00:18:30;-1.90;99.90
26505;DHT22;19493;48.042;7.584;2022-12-11T00:20:59;-1.80;99.90
26505;DHT22;19493;48.042;7.584;2022-12-11T00:23:26;-1.80;99.90
26505;DHT22;19493;48.042;7.584;2022-12-11T00:25:51;-1.70;99.90
26505;DHT22;19493;48.042;7.584;2022-12-11T00:28:17;-1.70;99.90
26505;DHT22;19493;48.042;7.584;2022-12-11T00:30:46;-1.60;99.90
26505;DHT22;19493;48.042;7.584;2022-12-11T00:33:13;-1.60;99.90
26505;DHT22;19493;48.042;7.584;2022-12-11T00:35:40;-1.60;99.90
26505;DHT22;19493;48.042;7.584;2022-12-11T00:38:07;-1.50;99.90
26505;DHT22;19493;48.042;7.584;2022-12-11T00:40:35;-1.40;99.90
26505;DHT22;19493;48.042;7.584;2022-12-11T00:43:01;-1.30;99.90
26505;DHT22;19493;48.042;7.584;2022-12-11T00:45:27;-1.30;99.90
26505;DHT22;19493;48.042;7.584;2022-12-11T00:47:53;-1.20;99.90
26505;DHT22;19493;48.042;7.584;2022-12-11T00:50:18;-1.20;99.90
26505;DHT22;19493;48.042;7.584;2022-12-11T00:52:44;-1.20;99.90
26505;DHT22;19493;48.042;7.584;2022-12-11T00:55:10;-1.20;99.90
26505;DHT22;19493;48.042;7.584;2022-12-11T00:57:35;-1.20;99.90
26505;DHT22;19493;48.042;7.584;2022-12-11T01:00:03;-1.10;99.90
26505;DHT22;19493;48.042;7.584;2022-12-11T01:02:32;-1.10;99.90
26505;DHT22;19493;48.042;7.584;2022-12-11T01:04:57;-1.00;99.90
26505;DHT22;19493;48.042;7.584;2022-12-11T01:07:23;-1.00;99.90
26505;DHT22;19493;48.042;7.584;2022-12-11T01:09:48;-0.90;99.90
26505;DHT22;19493;48.042;7.584;2022-12-11T01:12:33;-0.90;99.90
26505;DHT22;19493;48.042;7.584;2022-12-11T01:14:58;-0.90;99.90
26505;DHT22;19493;48.042;7.584;2022-12-11T01:17:24;-0.90;99.90
26505;DHT22;19493;48.042;7.584;2022-12-11T01:19:52;-0.90;99.90
26505;DHT22;19493;48.042;7.584;2022-12-11T01:22:18;-0.80;99.90
26505;DHT22;19493;48.042;7.584;2022-12-11T01:24:43;-0.80;99.90
26505;DHT22;19493;48.042;7.584;2022-12-11T01:27:09;-0.80;99.90
26505;DHT22;19493;48.042;7.584;2022-12-11T01:29:35;-0.80;99.90
26505;DHT22;19493;48.042;7.584;2022-12-11T01:32:00;-0.80;99.90
26505;DHT22;19493;48.042;7.584;2022-12-11T01:34:28;-0.70;99.90
26505;DHT22;19493;48.042;7.584;2022-12-11T01:36:54;-0.70;99.90
26505;DHT22;19493;48.042;7.584;2022-12-11T01:39:20;-0.70;99.90
26505;DHT22;19493;48.042;7.584;2022-12-11T01:41:45;-0.70;99.90
26505;DHT22;19493;48.042;7.584;2022-12-11T01:46:40;-0.70;99.90
26505;DHT22;19493;48.042;7.584;2022-12-11T01:49:09;-0.70;99.90
26505;DHT22;19493;48.042;7.584;2022-12-11T01:51:44;-0.70;99.90
26505;DHT22;19493;48.042;7.584;2022-12-11T01:54:14;-0.70;99.90
26505;DHT22;19493;48.042;7.584;2022-12-11T01:56:43;-0.70;99.90
26505;DHT22;19493;48.042;7.584;2022-12-11T01:59:10;-0.70;99.90
26505;DHT22;19493;48.042;7.584;2022-12-11T02:01:42;-0.70;99.90
26505;DHT22;19493;48.042;7.584;2022-12-11T02:04:10;-0.70;99.90
26505;DHT22;19493;48.042;7.584;2022-12-11T02:06:44;-0.80;99.90
26505;DHT22;19493;48.042;7.584;2022-12-11T02:09:19;-0.70;99.90
26505;DHT22;19493;48.042;7.584;2022-12-11T02:12:00;-0.70;99.90
26505;DHT22;19493;48.042;7.584;2022-12-11T02:17:11;-0.70;99.90
26505;DHT22;19493;48.042;7.584;2022-12-11T02:30:38;-0.80;99.90
26505;DHT22;19493;48.042;7.584;2022-12-11T02:33:08;-0.80;99.90
26505;DHT22;19493;48.042;7.584;2022-12-11T02:35:43;-0.70;99.90
26505;DHT22;19493;48.042;7.584;2022-12-11T02:38:15;-0.70;99.90
26505;DHT22;19493;48.042;7.584;2022-12-11T02:40:42;-0.70;99.90
26505;DHT22;19493;48.042;7.584;2022-12-11T02:43:10;-0.70;99.90
26505;DHT22;19493;48.042;7.584;2022-12-11T02:45:39;-0.70;99.90
26505;DHT22;19493;48.042;7.584;2022-12-11T02:48:07;-0.70;99.90
26505;DHT22;19493;48.042;7.584;2022-12-11T02:50:36;-0.70;99.90
26505;DHT22;19493;48.042;7.584;2022-12-11T02:53:05;-0.80;99.90
26505;DHT22;19493;48.042;7.584;2022-12-11T02:55:31;-0.80;99.90
26505;DHT22;19493;48.042;7.584;2022-12-11T02:58:23;-0.80;99.90
26505;DHT22;19493;48.042;7.584;2022-12-11T03:00:50;-0.70;99.90
26505;DHT22;19493;48.042;7.584;2022-12-11T03:03:16;-0.70;99.90
26505;DHT22;19493;48.042;7.584;2022-12-11T03:05:42;-0.80;99.90
26505;DHT22;19493;48.042;7.584;2022-12-11T03:08:08;-0.80;99.90
26505;DHT22;19493;48.042;7.584;2022-12-11T03:10:33;-0.80;99.90
26505;DHT22;19493;48.042;7.584;2022-12-11T03:12:59;-0.80;99.90
26505;DHT22;19493;48.042;7.584;2022-12-11T03:15:57;-0.90;99.90
26505;DHT22;19493;48.042;7.584;2022-12-11T03:18:40;-0.90;99.90
26505;DHT22;19493;48.042;7.584;2022-12-11T03:26:36;-1.00;99.90
26505;DHT22;19493;48.042;7.584;2022-12-11T03:29:11;-1.10;99.90
26505;DHT22;19493;48.042;7.584;2022-12-11T03:31:42;-1.20;99.90
26505;DHT22;19493;48.042;7.584;2022-12-11T03:34:21;-1.30;99.90
26505;DHT22;19493;48.042;7.584;2022-12-11T03:36:48;-1.40;99.90
26505;DHT22;19493;48.042;7.584;2022-12-11T03:39:20;-1.40;99.90
26505;DHT22;19493;48.042;7.584;2022-12-11T03:41:47;-1.40;99.90
26505;DHT22;19493;48.042;7.584;2022-12-11T03:44:15;-1.40;99.90
26505;DHT22;19493;48.042;7.584;2022-12-11T03:46:42;-1.50;99.90
26505;DHT22;19493;48.042;7.584;2022-12-11T03:49:17;-1.50;99.90
26505;DHT22;19493;48.042;7.584;2022-12-11T03:51:45;-1.50;99.90
26505;DHT22;19493;48.042;7.584;2022-12-11T03:54:14;-1.50;99.90
26505;DHT22;19493;48.042;7.584;2022-12-11T03:56:41;-1.50;99.90
26505;DHT22;19493;48.042;7.584;2022-12-11T03:59:08;-1.50;99.90
26505;DHT22;19493;48.042;7.584;2022-12-11T04:01:34;-1.50;99.90
26505;DHT22;19493;48.042;7.584;2022-12-11T04:04:00;-1.50;99.90
26505;DHT22;19493;48.042;7.584;2022-12-11T04:06:25;-1.50;99.90
26505;DHT22;19493;48.042;7.584;2022-12-11T04:08:51;-1.40;99.90
26505;DHT22;19493;48.042;7.584;2022-12-11T04:11:16;-1.40;99.90
26505;DHT22;19493;48.042;7.584;2022-12-11T04:14:05;-1.30;99.90
26505;DHT22;19493;48.042;7.584;2022-12-11T04:16:50;-1.20;99.90
26505;DHT22;19493;48.042;7.584;2022-12-11T04:19:17;-1.20;99.90
26505;DHT22;19493;48.042;7.584;2022-12-11T04:22:01;-1.20;99.90
26505;DHT22;19493;48.042;7.584;2022-12-11T04:24:47;-1.20;99.90
26505;DHT22;19493;48.042;7.584;2022-12-11T04:27:13;-1.20;99.90
26505;DHT22;19493;48.042;7.584;2022-12-11T04:29:39;-1.20;99.90
26505;DHT22;19493;48.042;7.584;2022-12-11T04:32:04;-1.20;99.90
26505;DHT22;19493;48.042;7.584;2022-12-11T04:34:30;-1.20;99.90
26505;DHT22;19493;48.042;7.584;2022-12-11T04:36:56;-1.20;99.90
26505;DHT22;19493;48.042;7.584;2022-12-11T04:39:21;-1.20;99.90
26505;DHT22;19493;48.042;7.584;2022-12-11T04:41:47;-1.20;99.90
26505;DHT22;19493;48.042;7.584;2022-12-11T04:44:12;-1.20;99.90
26505;DHT22;19493;48.042;7.584;2022-12-11T04:46:38;-1.20;99.90
26505;DHT22;19493;48.042;7.584;2022-12-11T04:49:03;-1.20;99.90
26505;DHT22;19493;48.042;7.584;2022-12-11T04:51:29;-1.20;99.90
26505;DHT22;19493;48.042;7.584;2022-12-11T04:53:55;-1.20;99.90
26505;DHT22;19493;48.042;7.584;2022-12-11T04:56:20;-1.20;99.90
26505;DHT22;19493;48.042;7.584;2022-12-11T04:58:47;-1.20;99.90
26505;DHT22;19493;48.042;7.584;2022-12-11T05:01:16;-1.20;99.90
26505;DHT22;19493;48.042;7.584;2022-12-11T05:03:42;-1.20;99.90
26505;DHT22;19493;48.042;7.584;2022-12-11T05:06:09;-1.20;99.90
26505;DHT22;19493;48.042;7.584;2022-12-11T05:08:36;-1.20;99.90
26505;DHT22;19493;48.042;7.584;2022-12-11T05:11:04;-1.30;99.90
26505;DHT22;19493;48.042;7.584;2022-12-11T05:13:30;-1.30;99.90
26505;DHT22;19493;48.042;7.584;2022-12-11T05:15:56;-1.30;99.90
26505;DHT22;19493;48.042;7.584;2022-12-11T05:18:22;-1.40;99.90
26505;DHT22;19493;48.042;7.584;2022-12-11T05:20:59;-1.40;99.90
26505;DHT22;19493;48.042;7.584;2022-12-11T05:23:26;-1.40;99.90
26505;DHT22;19493;48.042;7.584;2022-12-11T05:25:56;-1.40;99.90
26505;DHT22;19493;48.042;7.584;2022-12-11T05:28:23;-1.40;99.90
26505;DHT22;19493;48.042;7.584;2022-12-11T05:31:01;-1.40;99.90
26505;DHT22;19493;48.042;7.584;2022-12-11T05:33:28;-1.40;99.90
26505;DHT22;19493;48.042;7.584;2022-12-11T05:35:54;-1.50;99.90
26505;DHT22;19493;48.042;7.584;2022-12-11T05:38:20;-1.40;99.90
26505;DHT22;19493;48.042;7.584;2022-12-11T05:40:58;-1.40;99.90
26505;DHT22;19493;48.042;7.584;2022-12-11T05:43:25;-1.50;99.90
26505;DHT22;19493;48.042;7.584;2022-12-11T05:45:52;-1.40;99.90
26505;DHT22;19493;48.042;7.584;2022-12-11T05:48:18;-1.40;99.90
26505;DHT22;19493;48.042;7.584;2022-12-11T05:50:43;-1.40;99.90
26505;DHT22;19493;48.042;7.584;2022-12-11T05:53:09;-1.50;99.90
26505;DHT22;19493;48.042;7.584;2022-12-11T05:55:35;-1.50;99.90
26505;DHT22;19493;48.042;7.584;2022-12-11T05:58:01;-1.50;99.90
26505;DHT22;19493;48.042;7.584;2022-12-11T06:00:26;-1.50;99.90
26505;DHT22;19493;48.042;7.584;2022-12-11T06:02:52;-1.50;99.90
26505;DHT22;19493;48.042;7.584;2022-12-11T06:05:17;-1.60;99.90
26505;DHT22;19493;48.042;7.584;2022-12-11T06:07:43;-1.60;99.90
26505;DHT22;19493;48.042;7.584;2022-12-11T06:10:09;-1.60;99.90
26505;DHT22;19493;48.042;7.584;2022-12-11T06:12:35;-1.60;99.90
26505;DHT22;19493;48.042;7.584;2022-12-11T06:15:00;-1.60;99.90
26505;DHT22;19493;48.042;7.584;2022-12-11T06:17:26;-1.60;99.90
26505;DHT22;19493;48.042;7.584;2022-12-11T06:19:51;-1.60;99.90
26505;DHT22;19493;48.042;7.584;2022-12-11T06:22:17;-1.60;99.90
26505;DHT22;19493;48.042;7.584;2022-12-11T06:24:43;-1.60;99.90
26505;DHT22;19493;48.042;7.584;2022-12-11T06:27:08;-1.60;99.90
26505;DHT22;19493;48.042;7.584;2022-12-11T06:29:34;-1.60;99.90
26505;DHT22;19493;48.042;7.584;2022-12-11T06:32:00;-1.70;99.90
26505;DHT22;19493;48.042;7.584;2022-12-11T06:34:26;-1.70;99.90
26505;DHT22;19493;48.042;7.584;2022-12-11T06:36:51;-1.70;99.90
26505;DHT22;19493;48.042;7.584;2022-12-11T06:39:17;-1.70;99.90
26505;DHT22;19493;48.042;7.584;2022-12-11T06:41:42;-1.70;99.90
26505;DHT22;19493;48.042;7.584;2022-12-11T06:44:08;-1.70;99.90
26505;DHT22;19493;48.042;7.584;2022-12-11T06:46:33;-1.70;99.90
26505;DHT22;19493;48.042;7.584;2022-12-11T06:49:00;-1.80;99.90
26505;DHT22;19493;48.042;7.584;2022-12-11T06:51:25;-1.80;99.90
26505;DHT22;19493;48.042;7.584;2022-12-11T06:53:52;-1.90;99.90
26505;DHT22;19493;48.042;7.584;2022-12-11T06:56:19;-1.90;99.90
26505;DHT22;19493;48.042;7.584;2022-12-11T06:58:44;-2.10;99.90
26505;DHT22;19493;48.042;7.584;2022-12-11T07:01:22;-2.10;99.90
26505;DHT22;19493;48.042;7.584;2022-12-11T07:03:48;-2.10;99.90
26505;DHT22;19493;48.042;7.584;2022-12-11T07:06:15;-2.10;99.90
26505;DHT22;19493;48.042;7.584;2022-12-11T07:08:41;-2.10;99.90
26505;DHT22;19493;48.042;7.584;2022-12-11T07:11:09;-2.00;99.90
26505;DHT22;19493;48.042;7.584;2022-12-11T07:13:35;-2.00;99.90
26505;DHT22;19493;48.042;7.584;2022-12-11T07:16:02;-2.00;99.90
26505;DHT22;19493;48.042;7.584;2022-12-11T07:18:29;-2.00;99.90
26505;DHT22;19493;48.042;7.584;2022-12-11T07:20:59;-2.00;99.90
26505;DHT22;19493;48.042;7.584;2022-12-11T07:23:26;-2.00;99.90
26505;DHT22;19493;48.042;7.584;2022-12-11T07:25:53;-1.90;99.90
26505;DHT22;19493;48.042;7.584;2022-12-11T07:28:18;-1.90;99.90
26505;DHT22;19493;48.042;7.584;2022-12-11T07:30:44;-1.80;99.90
26505;DHT22;19493;48.042;7.584;2022-12-11T07:33:09;-1.80;99.90
26505;DHT22;19493;48.042;7.584;2022-12-11T07:35:35;-1.80;99.90
26505;DHT22;19493;48.042;7.584;2022-12-11T07:38:01;-1.80;99.90
26505;DHT22;19493;48.042;7.584;2022-12-11T07:40:27;-1.70;99.90
26505;DHT22;19493;48.042;7.584;2022-12-11T07:42:52;-1.70;99.90
26505;DHT22;19493;48.042;7.584;2022-12-11T07:45:18;-1.60;99.90
26505;DHT22;19493;48.042;7.584;2022-12-11T07:47:44;-1.60;99.90
26505;DHT22;19493;48.042;7.584;2022-12-11T07:50:12;-1.60;99.90
26505;DHT22;19493;48.042;7.584;2022-12-11T07:52:38;-1.70;99.90
26505;DHT22;19493;48.042;7.584;2022-12-11T07:55:04;-1.60;99.90
26505;DHT22;19493;48.042;7.584;2022-12-11T07:57:30;-1.60;99.90
26505;DHT22;19493;48.042;7.584;2022-12-11T07:59:55;-1.60;99.90
26505;DHT22;19493;48.042;7.584;2022-12-11T08:02:21;-1.60;99.90
26505;DHT22;19493;48.042;7.584;2022-12-11T08:04:46;-1.50;99.90
26505;DHT22;19493;48.042;7.584;2022-12-11T08:07:12;-1.50;99.90
26505;DHT22;19493;48.042;7.584;2022-12-11T08:09:38;-1.40;99.90
26505;DHT22;19493;48.042;7.584;2022-12-11T08:12:03;-1.50;99.90
26505;DHT22;19493;48.042;7.584;2022-12-11T08:14:29;-1.50;99.90
26505;DHT22;19493;48.042;7.584;2022-12-11T08:16:55;-1.60;99.90
26505;DHT22;19493;48.042;7.584;2022-12-11T08:19:21;-1.60;99.90
26505;DHT22;19493;48.042;7.584;2022-12-11T08:21:47;-1.60;99.90
26505;DHT22;19493;48.042;7.584;2022-12-11T08:24:13;-1.50;99.90
26505;DHT22;19493;48.042;7.584;2022-12-11T08:26:40;-1.40;99.90
26505;DHT22;19493;48.042;7.584;2022-12-11T08:29:06;-1.40;99.90
26505;DHT22;19493;48.042;7.584;2022-12-11T08:31:32;-1.30;99.90
26505;DHT22;19493;48.042;7.584;2022-12-11T08:33:58;-1.30;99.90
26505;DHT22;19493;48.042;7.584;2022-12-11T08:36:24;-1.40;99.90
26505;DHT22;19493;48.042;7.584;2022-12-11T08:38:50;-1.50;99.90
26505;DHT22;19493;48.042;7.584;2022-12-11T08:41:25;-1.50;99.90
26505;DHT22;19493;48.042;7.584;2022-12-11T08:43:51;-1.40;99.90
26505;DHT22;19493;48.042;7.584;2022-12-11T08:46:24;-1.30;99.90
26505;DHT22;19493;48.042;7.584;2022-12-11T08:48:50;-1.40;99.90
26505;DHT22;19493;48.042;7.584;2022-12-11T08:51:19;-1.40;99.90
26505;DHT22;19493;48.042;7.584;2022-12-11T08:53:47;-1.40;99.90
26505;DHT22;19493;48.042;7.584;2022-12-11T08:56:15;-1.40;99.90
26505;DHT22;19493;48.042;7.584;2022-12-11T08:58:42;-1.50;99.90
26505;DHT22;19493;48.042;7.584;2022-12-11T09:01:10;-1.50;99.90
26505;DHT22;19493;48.042;7.584;2022-12-11T09:03:37;-1.40;99.90
26505;DHT22;19493;48.042;7.584;2022-12-11T09:06:09;-1.30;99.90
26505;DHT22;19493;48.042;7.584;2022-12-11T09:08:35;-1.20;99.90
26505;DHT22;19493;48.042;7.584;2022-12-11T09:11:13;-1.20;99.90
26505;DHT22;19493;48.042;7.584;2022-12-11T09:13:39;-1.20;99.90
26505;DHT22;19493;48.042;7.584;2022-12-11T09:16:08;-1.10;99.90
26505;DHT22;19493;48.042;7.584;2022-12-11T09:18:37;-1.00;99.90
26505;DHT22;19493;48.042;7.584;2022-12-11T09:21:09;-1.00;99.90
26505;DHT22;19493;48.042;7.584;2022-12-11T09:23:35;-0.90;99.90
26505;DHT22;19493;48.042;7.584;2022-12-11T09:26:06;-0.90;99.90
26505;DHT22;19493;48.042;7.584;2022-12-11T09:28:33;-0.90;99.90
26505;DHT22;19493;48.042;7.584;2022-12-11T09:30:58;-0.90;99.90
26505;DHT22;19493;48.042;7.584;2022-12-11T09:33:24;-0.70;99.90
26505;DHT22;19493;48.042;7.584;2022-12-11T09:35:59;-0.60;99.90
26505;DHT22;19493;48.042;7.584;2022-12-11T09:38:25;-0.60;99.90
26505;DHT22;19493;48.042;7.584;2022-12-11T09:40:51;-0.70;99.90
26505;DHT22;19493;48.042;7.584;2022-12-11T09:43:43;-0.80;99.90
26505;DHT22;19493;48.042;7.584;2022-12-11T09:46:13;-0.80;99.90
26505;DHT22;19493;48.042;7.584;2022-12-11T09:48:41;-0.80;99.90
26505;DHT22;19493;48.042;7.584;2022-12-11T09:51:23;-0.80;99.90
26505;DHT22;19493;48.042;7.584;2022-12-11T09:53:50;-0.80;99.90
26505;DHT22;19493;48.042;7.584;2022-12-11T09:56:32;-0.70;99.90
26505;DHT22;19493;48.042;7.584;2022-12-11T10:07:55;-0.50;99.90
26505;DHT22;19493;48.042;7.584;2022-12-11T10:13:29;-0.10;99.90
26505;DHT22;19493;48.042;7.584;2022-12-11T10:16:10;0.10;99.90
26505;DHT22;19493;48.042;7.584;2022-12-11T10:18:38;0.40;99.90
26505;DHT22;19493;48.042;7.584;2022-12-11T10:21:05;0.30;99.90
26505;DHT22;19493;48.042;7.584;2022-12-11T10:23:45;0.30;99.90
26505;DHT22;19493;48.042;7.584;2022-12-11T10:26:19;0.30;99.90
26505;DHT22;19493;48.042;7.584;2022-12-11T10:28:45;0.30;99.90
26505;DHT22;19493;48.042;7.584;2022-12-11T10:34:11;0.20;99.90
26505;DHT22;19493;48.042;7.584;2022-12-11T10:36:39;0.40;99.90
26505;DHT22;19493;48.042;7.584;2022-12-11T10:39:22;0.40;99.90
26505;DHT22;19493;48.042;7.584;2022-12-11T10:41:53;0.20;99.90
26505;DHT22;19493;48.042;7.584;2022-12-11T10:46:47;0.20;99.90
26505;DHT22;19493;48.042;7.584;2022-12-11T10:49:25;0.20;99.90
26505;DHT22;19493;48.042;7.584;2022-12-11T10:51:53;0.30;99.90
26505;DHT22;19493;48.042;7.584;2022-12-11T10:56:54;0.50;99.90
26505;DHT22;19493;48.042;7.584;2022-12-11T10:59:26;0.50;99.90
26505;DHT22;19493;48.042;7.584;2022-12-11T11:01:53;0.40;99.90
26505;DHT22;19493;48.042;7.584;2022-12-11T11:04:33;0.40;99.90
26505;DHT22;19493;48.042;7.584;2022-12-11T11:07:11;0.40;99.90
26505;DHT22;19493;48.042;7.584;2022-12-11T11:09:37;0.40;99.90
26505;DHT22;19493;48.042;7.584;2022-12-11T11:12:25;0.40;99.90
26505;DHT22;19493;48.042;7.584;2022-12-11T11:15:06;0.40;99.90
26505;DHT22;19493;48.042;7.584;2022-12-11T11:17:39;0.30;99.90
26505;DHT22;19493;48.042;7.584;2022-12-11T11:20:16;0.40;99.90
26505;DHT22;19493;48.042;7.584;2022-12-11T11:22:49;0.40;99.90
26505;DHT22;19493;48.042;7.584;2022-12-11T11:25:18;0.50;99.90
26505;DHT22;19493;48.042;7.584;2022-12-11T11:27:51;0.40;99.90
26505;DHT22;19493;48.042;7.584;2022-12-11T11:33:01;0.30;99.90
26505;DHT22;19493;48.042;7.584;2022-12-11T11:35:29;0.40;99.90
26505;DHT22;19493;48.042;7.584;2022-12-11T11:37:59;0.40;99.90
26505;DHT22;19493;48.042;7.584;2022-12-11T11:40:40;0.30;99.90
26505;DHT22;19493;48.042;7.584;2022-12-11T11:45:46;0.20;99.90
26505;DHT22;19493;48.042;7.584;2022-12-11T11:48:34;0.20;99.90
26505;DHT22;19493;48.042;7.584;2022-12-11T11:51:21;0.10;99.90
26505;DHT22;19493;48.042;7.584;2022-12-11T11:53:49;0.10;99.90
26505;DHT22;19493;48.042;7.584;2022-12-11T11:56:22;0.20;99.90
26505;DHT22;19493;48.042;7.584;2022-12-11T12:01:42;0.40;99.90
26505;DHT22;19493;48.042;7.584;2022-12-11T12:04:08;0.40;99.90
26505;DHT22;19493;48.042;7.584;2022-12-11T12:06:47;0.40;99.90
26505;DHT22;19493;48.042;7.584;2022-12-11T12:17:55;0.70;99.90
26505;DHT22;19493;48.042;7.584;2022-12-11T12:20:53;0.80;99.90
26505;DHT22;19493;48.042;7.584;2022-12-11T12:23:39;0.80;99.90
26505;DHT22;19493;48.042;7.584;2022-12-11T12:26:28;0.70;99.90
26505;DHT22;19493;48.042;7.584;2022-12-11T12:32:20;0.60;99.90
26505;DHT22;19493;48.042;7.584;2022-12-11T12:37:49;0.50;99.90
26505;DHT22;19493;48.042;7.584;2022-12-11T12:46:01;0.20;99.90
26505;DHT22;19493;48.042;7.584;2022-12-11T12:48:30;0.20;99.90
26505;DHT22;19493;48.042;7.584;2022-12-11T12:50:55;0.30;99.90
26505;DHT22;19493;48.042;7.584;2022-12-11T12:53:27;0.50;99.90
26505;DHT22;19493;48.042;7.584;2022-12-11T12:55:55;0.60;99.90
26505;DHT22;19493;48.042;7.584;2022-12-11T12:58:39;0.60;99.90
26505;DHT22;19493;48.042;7.584;2022-12-11T13:06:36;1.80;99.90
26505;DHT22;19493;48.042;7.584;2022-12-11T13:09:23;2.30;99.90
26505;DHT22;19493;48.042;7.584;2022-12-11T13:11:52;2.50;99.90
26505;DHT22;19493;48.042;7.584;2022-12-11T13:16:51;3.00;99.90
26505;DHT22;19493;48.042;7.584;2022-12-11T13:27:24;2.50;99.90
26505;DHT22;19493;48.042;7.584;2022-12-11T13:29:50;2.10;99.90
26505;DHT22;19493;48.042;7.584;2022-12-11T13:34:45;1.50;99.90
26505;DHT22;19493;48.042;7.584;2022-12-11T13:37:41;1.40;99.90
26505;DHT22;19493;48.042;7.584;2022-12-11T13:40:18;1.30;99.90
26505;DHT22;19493;48.042;7.584;2022-12-11T13:42:54;1.40;99.90
26505;DHT22;19493;48.042;7.584;2022-12-11T13:45:50;1.40;99.90
26505;DHT22;19493;48.042;7.584;2022-12-11T13:51:01;1.50;99.90
26505;DHT22;19493;48.042;7.584;2022-12-11T13:53:27;1.60;99.90
26505;DHT22;19493;48.042;7.584;2022-12-11T13:58:27;1.30;99.90
26505;DHT22;19493;48.042;7.584;2022-12-11T14:03:32;1.10;99.90
26505;DHT22;19493;48.042;7.584;2022-12-11T14:05:59;1.10;99.90
26505;DHT22;19493;48.042;7.584;2022-12-11T14:08:34;1.00;99.90
26505;DHT22;19493;48.042;7.584;2022-12-11T14:11:00;0.90;99.90
26505;DHT22;19493;48.042;7.584;2022-12-11T14:13:32;0.90;99.90
26505;DHT22;19493;48.042;7.584;2022-12-11T14:15:58;0.80;99.90
26505;DHT22;19493;48.042;7.584;2022-12-11T14:18:27;0.50;99.90
26505;DHT22;19493;48.042;7.584;2022-12-11T14:20:59;0.40;99.90
26505;DHT22;19493;48.042;7.584;2022-12-11T14:23:27;0.30;99.90
26505;DHT22;19493;48.042;7.584;2022-12-11T14:26:03;0.20;99.90
26505;DHT22;19493;48.042;7.584;2022-12-11T14:28:36;0.00;99.90
26505;DHT22;19493;48.042;7.584;2022-12-11T14:31:03;0.10;99.90
26505;DHT22;19493;48.042;7.584;2022-12-11T14:33:46;0.10;99.90
26505;DHT22;19493;48.042;7.584;2022-12-11T14:36:14;-0.10;99.90
26505;DHT22;19493;48.042;7.584;2022-12-11T14:38:53;-0.20;99.90
26505;DHT22;19493;48.042;7.584;2022-12-11T14:41:24;-0.20;99.90
26505;DHT22;19493;48.042;7.584;2022-12-11T14:43:54;-0.20;99.90
26505;DHT22;19493;48.042;7.584;2022-12-11T14:46:24;-0.10;99.90
26505;DHT22;19493;48.042;7.584;2022-12-11T14:49:00;-0.10;99.90
26505;DHT22;19493;48.042;7.584;2022-12-11T14:51:30;-0.10;99.90
26505;DHT22;19493;48.042;7.584;2022-12-11T14:53:58;-0.30;99.90
26505;DHT22;19493;48.042;7.584;2022-12-11T14:56:26;-0.60;99.90
26505;DHT22;19493;48.042;7.584;2022-12-11T14:58:58;-0.90;99.90
26505;DHT22;19493;48.042;7.584;2022-12-11T15:01:28;-1.10;99.90
26505;DHT22;19493;48.042;7.584;2022-12-11T15:06:48;-1.30;99.90
26505;DHT22;19493;48.042;7.584;2022-12-11T15:11:46;-1.40;99.90
26505;DHT22;19493;48.042;7.584;2022-12-11T15:14:15;-1.50;99.90
26505;DHT22;19493;48.042;7.584;2022-12-11T15:16:41;-1.50;99.90
26505;DHT22;19493;48.042;7.584;2022-12-11T15:19:17;-1.60;99.90
26505;DHT22;19493;48.042;7.584;2022-12-11T15:21:44;-1.80;99.90
26505;DHT22;19493;48.042;7.584;2022-12-11T15:24:29;-1.90;99.90
26505;DHT22;19493;48.042;7.584;2022-12-11T15:26:59;-2.00;99.90
26505;DHT22;19493;48.042;7.584;2022-12-11T15:29:37;-2.10;99.90
26505;DHT22;19493;48.042;7.584;2022-12-11T15:32:15;-2.10;99.90
26505;DHT22;19493;48.042;7.584;2022-12-11T15:37:29;-2.30;99.90
26505;DHT22;19493;48.042;7.584;2022-12-11T15:39:57;-2.40;99.90
26505;DHT22;19493;48.042;7.584;2022-12-11T15:42:41;-2.50;99.90
26505;DHT22;19493;48.042;7.584;2022-12-11T15:45:15;-2.60;99.90
26505;DHT22;19493;48.042;7.584;2022-12-11T15:47:42;-2.70;99.90
26505;DHT22;19493;48.042;7.584;2022-12-11T15:50:22;-2.80;99.90
26505;DHT22;19493;48.042;7.584;2022-12-11T15:52:49;-2.80;99.90
26505;DHT22;19493;48.042;7.584;2022-12-11T15:55:16;-2.90;99.90
26505;DHT22;19493;48.042;7.584;2022-12-11T15:57:45;-2.90;99.90
26505;DHT22;19493;48.042;7.584;2022-12-11T16:00:15;-2.90;99.90
26505;DHT22;19493;48.042;7.584;2022-12-11T16:02:43;-2.90;99.90
26505;DHT22;19493;48.042;7.584;2022-12-11T16:05:09;-2.90;99.90
26505;DHT22;19493;48.042;7.584;2022-12-11T16:07:35;-2.90;99.90
26505;DHT22;19493;48.042;7.584;2022-12-11T16:10:01;-2.90;99.90
26505;DHT22;19493;48.042;7.584;2022-12-11T16:12:26;-2.90;99.90
26505;DHT22;19493;48.042;7.584;2022-12-11T16:14:52;-3.00;99.90
26505;DHT22;19493;48.042;7.584;2022-12-11T16:17:18;-2.90;99.90
26505;DHT22;19493;48.042;7.584;2022-12-11T16:19:44;-2.90;99.90
26505;DHT22;19493;48.042;7.584;2022-12-11T16:22:12;-2.90;99.90
26505;DHT22;19493;48.042;7.584;2022-12-11T16:24:38;-3.00;99.90
26505;DHT22;19493;48.042;7.584;2022-12-11T16:27:04;-3.00;99.90
26505;DHT22;19493;48.042;7.584;2022-12-11T16:29:35;-3.10;99.90
26505;DHT22;19493;48.042;7.584;2022-12-11T16:32:01;-3.20;99.90
26505;DHT22;19493;48.042;7.584;2022-12-11T16:34:27;-3.20;99.90
26505;DHT22;19493;48.042;7.584;2022-12-11T16:36:52;-3.20;99.90
26505;DHT22;19493;48.042;7.584;2022-12-11T16:39:19;-3.20;99.90
26505;DHT22;19493;48.042;7.584;2022-12-11T16:41:44;-3.20;99.90
26505;DHT22;19493;48.042;7.584;2022-12-11T16:44:10;-3.30;99.90
26505;DHT22;19493;48.042;7.584;2022-12-11T16:46:36;-3.40;99.90
26505;DHT22;19493;48.042;7.584;2022-12-11T16:49:03;-3.50;99.90
26505;DHT22;19493;48.042;7.584;2022-12-11T16:51:28;-3.50;99.90
26505;DHT22;19493;48.042;7.584;2022-12-11T16:53:54;-3.60;99.90
26505;DHT22;19493;48.042;7.584;2022-12-11T16:56:20;-3.60;99.90
26505;DHT22;19493;48.042;7.584;2022-12-11T16:58:46;-3.80;99.90
26505;DHT22;19493;48.042;7.584;2022-12-11T17:01:13;-3.80;99.90
26505;DHT22;19493;48.042;7.584;2022-12-11T17:03:40;-3.80;99.90
26505;DHT22;19493;48.042;7.584;2022-12-11T17:06:09;-3.70;99.90
26505;DHT22;19493;48.042;7.584;2022-12-11T17:08:36;-3.70;99.90
26505;DHT22;19493;48.042;7.584;2022-12-11T17:11:09;-3.80;99.90
26505;DHT22;19493;48.042;7.584;2022-12-11T17:13:35;-3.80;99.90
26505;DHT22;19493;48.042;7.584;2022-12-11T17:16:10;-3.90;99.90
26505;DHT22;19493;48.042;7.584;2022-12-11T17:18:35;-3.90;99.90
26505;DHT22;19493;48.042;7.584;2022-12-11T17:21:05;-3.90;99.90
26505;DHT22;19493;48.042;7.584;2022-12-11T17:23:31;-3.80;99.90
26505;DHT22;19493;48.042;7.584;2022-12-11T17:25:57;-3.80;99.90
26505;DHT22;19493;48.042;7.584;2022-12-11T17:28:23;-3.80;99.90
26505;DHT22;19493;48.042;7.584;2022-12-11T17:30:48;-3.80;99.90
26505;DHT22;19493;48.042;7.584;2022-12-11T17:33:14;-3.80;99.90